Port Allen, LA

12:32 AM CDT on September 24, 2014 (GMT -0500)
415/Court St | Change Station
CLOSE
Current Station
Personal Weather Station
Location: Port Allen, LA
Elevation: 30 ft
Nearby Weather Stations

Elev 30 ft 30.45 °N, 91.24 °W | Updated 15 seconds ago

Clear
Clear
69.1 °F
Feels Like 69.1 °F
N
1.0
Wind Variable Wind from NNE
Gusts 5.0 mph

Today
High -- | Low -- °F
--% Chance of Precip.
Yesterday
High -- | Low -- °F
Precip. -- in
6:54 AM 6:58 PM
Waning Crescent, 0% visible
Pressure 30.09 in
Visibility 10.0 miles
Clouds Clear
Dew Point 61 °F
Humidity 75%
Rainfall 0.00 in
Snow Depth Not available.
UV 0 out of 12
Pollen 10.20 out of 12
Ozone Good
PM2.5 Moderate
Flu Activity Not available.
METAR KBTR 240453Z 05005KT 10SM CLR 18/14 A3009 RMK AO2 SLP187 T01780144

More Conditions Fewer Conditions

Pressure 30.09 in
Visibility 10.0 miles
Clouds Clear
Dew Point 61 °F
Humidity 75%
Rainfall 0.00 in
Snow Depth Not available.
UV 0 out of 12
Pollen 10.20 out of 12
Ozone Good
PM2.5 Moderate
Flu Activity Not available.
METAR KBTR 240453Z 05005KT 10SM CLR 18/14 A3009 RMK AO2 SLP187 T01780144

More Conditions Fewer Conditions

10-Day Weather Forecast

Almanac

Astronomy

Sep. 24, 2014 Rise Set
Actual Time 6:54 AM CDT 6:58 PM CDT
Civil Twilight 6:30 AM CDT 7:22 PM CDT
Nautical Twilight 6:02 AM CDT 7:50 PM CDT
Astronomical Twilight 5:34 AM CDT 8:18 PM CDT
Moon 7:12 AM CDT 7:14 PM CDT
Length of Visible Light 12h 52m
Length of Day
12h 04m
Tomorrow will be 1m 50s shorter.
Waning Crescent, 0% of the Moon is Illuminated
Today
Waning Crescent
Sep 24
New
Oct 1
First Quarter
Oct 8
Full
Oct 15
Last Quarter

Today's Extremes

State Highs State Lows

Community

WunderPhotos

Upload Photos

1,755,891 photos uploaded!

WunderBlogs® & News

Nearby

Air Quality

  Air Quality AQ Index Pollutant
Yesterday Moderate
PM2.5
Yesterday Good
OZONE
Current Moderate
PM2.5
Current Good
OZONE
Tuesday Good
PM2.5
Tuesday Good
OZONE
Wednesday Good
OZONE
Wednesday Good
PM2.5
Thursday Moderate
OZONE
Thursday Good
PM2.5

Snow Depth

Station Depth Elevation
No new snow has been reported.

Earthquake Activity

City Distance Mag. Time & Date
No recent earthquake activity has been reported nearby.
Minimum magnitude displayed is 2.5.

Coastal Water Temperatures

Place Temperature
No Stations Reporting

Nearby Weather Stations